Time;durP1;ratioP1;P1;durP2;ratioP2;P2;SDS_P1;SDS_P2;PMS_P1;PMS_P2;Temp;Humidity;BMP_temperature;BMP_pressure;BME280_temperature;BME280_humidity;BME280_pressure;Samples;Min_cycle;Max_cycle;Signal;HPM_P1;HPM_P2
2021/10/10 00:01:36;;;;;;;10.77;8.37;;;;;;;;;;5093769;28;20445;-86
2021/10/10 00:04:04;;;;;;;10.70;8.53;;;6.70;99.90;;;;;;5095650;28;20503;-88
2021/10/10 00:06:32;;;;;;;12.00;8.87;;;;;;;;;;5092083;28;20445;-95
2021/10/10 00:08:59;;;;;;;10.93;9.10;;;;;;;;;;5108411;28;20456;-86
2021/10/10 00:11:26;;;;;;;11.40;8.17;;;;;;;;;;5099693;28;20448;-91
2021/10/10 00:13:53;;;;;;;15.40;8.43;;;;;;;;;;5095966;28;20471;-92
2021/10/10 00:16:20;;;;;;;19.57;8.57;;;;;;;;;;5076724;28;20449;-86
2021/10/10 00:18:48;;;;;;;17.80;8.33;;;;;;;;;;5095411;28;20445;-89
2021/10/10 00:21:16;;;;;;;13.87;9.30;;;4.70;99.90;;;;;;5093958;28;20444;-89
2021/10/10 00:23:43;;;;;;;10.40;8.70;;;;;;;;;;5095002;28;20441;-93
2021/10/10 00:26:11;;;;;;;10.50;7.40;;;;;;;;;;5094842;28;20452;-88
2021/10/10 00:28:38;;;;;;;12.77;8.00;;;;;;;;;;5094646;28;20449;-88
2021/10/10 00:31:05;;;;;;;10.50;8.20;;;;;;;;;;5095332;28;20975;-89
2021/10/10 00:33:32;;;;;;;10.10;7.93;;;;;;;;;;5094885;28;20463;-90
2021/10/10 00:35:59;;;;;;;10.63;8.83;;;;;;;;;;5093877;28;20445;-87
2021/10/10 00:38:27;;;;;;;11.90;7.67;;;4.40;99.90;;;;;;5095105;28;20448;-90
2021/10/10 00:40:55;;;;;;;11.20;7.80;;;;;;;;;;5095544;28;20456;-92
2021/10/10 00:43:22;;;;;;;11.93;8.07;;;;;;;;;;5095047;28;20453;-88
2021/10/10 00:45:49;;;;;;;12.83;8.87;;;;;;;;;;5094978;28;20500;-92
2021/10/10 00:48:17;;;;;;;10.90;8.50;;;;;;;;;;5097115;28;20808;-85
2021/10/10 00:50:44;;;;;;;10.50;8.10;;;;;;;;;;5105668;28;20456;-86
2021/10/10 00:53:12;;;;;;;14.43;9.00;;;4.00;99.90;;;;;;5095842;28;20464;-87
2021/10/10 00:55:41;;;;;;;10.80;8.60;;;4.20;99.90;;;;;;5094601;28;20452;-89
2021/10/10 00:58:09;;;;;;;12.73;8.90;;;;;;;;;;5094447;28;20453;-90
2021/10/10 01:00:36;;;;;;;13.63;9.60;;;;;;;;;;5095227;28;20488;-86
2021/10/10 01:03:03;;;;;;;10.90;7.63;;;;;;;;;;5095301;28;20456;-87
2021/10/10 01:05:30;;;;;;;10.30;7.37;;;;;;;;;;5096330;28;20492;-91
2021/10/10 01:07:58;;;;;;;21.47;9.43;;;;;;;;;;5094658;28;20475;-87
2021/10/10 01:10:25;;;;;;;13.73;9.50;;;;;;;;;;5095691;28;20452;-87
2021/10/10 01:12:54;;;;;;;10.57;8.40;;;4.20;99.90;;;;;;5094997;28;20451;-88
2021/10/10 01:15:21;;;;;;;13.17;8.67;;;;;;;;;;5094628;28;20448;-87
2021/10/10 01:17:50;;;;;;;11.07;9.40;;;4.20;99.90;;;;;;5095368;28;20457;-92
2021/10/10 01:20:20;;;;;;;11.53;9.27;;;4.10;99.90;;;;;;5095235;28;20441;-91
2021/10/10 01:22:49;;;;;;;12.90;8.60;;;;;;;;;;5095601;28;20445;-86
2021/10/10 01:25:16;;;;;;;11.80;8.83;;;;;;;;;;5098839;28;20516;-86
2021/10/10 01:27:43;;;;;;;12.57;8.40;;;;;;;;;;5099808;28;20449;-86
2021/10/10 01:30:11;;;;;;;13.50;8.40;;;;;;;;;;5096849;28;20456;-87
2021/10/10 01:32:38;;;;;;;15.97;9.10;;;;;;;;;;5094038;28;20452;-91
2021/10/10 01:35:06;;;;;;;10.07;7.57;;;4.00;99.90;;;;;;5099964;28;20448;-86
2021/10/10 01:37:33;;;;;;;11.90;7.93;;;;;;;;;;5098692;28;20445;-90
2021/10/10 01:40:01;;;;;;;12.03;8.10;;;3.90;99.90;;;;;;5093150;28;20441;-89
2021/10/10 01:42:28;;;;;;;11.90;8.07;;;;;;;;;;5093414;28;20444;-88
2021/10/10 01:44:55;;;;;;;10.83;8.07;;;;;;;;;;5093433;28;20488;-90
2021/10/10 01:47:23;;;;;;;11.57;9.07;;;;;;;;;;5092821;28;20448;-87
2021/10/10 01:49:50;;;;;;;10.70;8.37;;;;;;;;;;5093643;28;20449;-92
2021/10/10 01:52:17;;;;;;;13.53;8.13;;;;;;;;;;5092355;28;20449;-89
2021/10/10 01:54:44;;;;;;;11.00;7.93;;;;;;;;;;5094493;28;20491;-86
2021/10/10 01:57:12;;;;;;;10.73;8.93;;;3.70;99.90;;;;;;5094819;28;20440;-88
2021/10/10 01:59:39;;;;;;;14.00;8.60;;;;;;;;;;5094968;28;20456;-90
2021/10/10 02:02:06;;;;;;;13.83;8.30;;;;;;;;;;5094632;28;20448;-89
2021/10/10 02:04:33;;;;;;;12.13;8.57;;;;;;;;;;5091210;28;20499;-92
2021/10/10 02:07:01;;;;;;;11.57;8.57;;;;;;;;;;5090143;28;20449;-90
2021/10/10 02:09:28;;;;;;;11.90;8.90;;;;;;;;;;5092906;28;20974;-89
2021/10/10 02:11:55;;;;;;;13.47;8.97;;;;;;;;;;5093537;28;20456;-88
2021/10/10 02:14:23;;;;;;;10.50;8.33;;;3.50;99.90;;;;;;5093338;28;20459;-88
2021/10/10 02:16:50;;;;;;;11.57;9.03;;;;;;;;;;5093350;28;20965;-91
2021/10/10 02:19:17;;;;;;;11.13;8.40;;;;;;;;;;5093278;28;20463;-87
2021/10/10 02:21:44;;;;;;;13.83;8.00;;;;;;;;;;5091898;28;20822;-90
2021/10/10 02:24:12;;;;;;;10.67;8.17;;;;;;;;;;5093362;28;20445;-91
2021/10/10 02:26:39;;;;;;;9.80;8.00;;;;;;;;;;5093511;28;20455;-88
2021/10/10 02:29:06;;;;;;;9.30;7.80;;;;;;;;;;5093824;28;20444;-87
2021/10/10 02:31:34;;;;;;;12.00;8.20;;;3.50;99.90;;;;;;5088398;28;20487;-92
2021/10/10 02:34:01;;;;;;;12.20;9.10;;;;;;;;;;5089641;28;20755;-87
2021/10/10 02:36:28;;;;;;;12.13;8.20;;;;;;;;;;5092343;28;20457;-91
2021/10/10 02:38:56;;;;;;;14.97;9.77;;;;;;;;;;5093173;28;20445;-87
2021/10/10 02:41:23;;;;;;;13.00;8.80;;;;;;;;;;5093397;28;20962;-89
2021/10/10 02:43:50;;;;;;;13.33;9.67;;;;;;;;;;5112120;28;20463;-89
2021/10/10 02:46:17;;;;;;;12.70;9.10;;;;;;;;;;5112218;28;20502;-89
2021/10/10 02:48:46;;;;;;;16.60;8.97;;;3.60;99.90;;;;;;5109083;28;20600;-86
2021/10/10 02:51:13;;;;;;;16.10;9.30;;;;;;;;;;5112990;28;20455;-86
2021/10/10 02:53:40;;;;;;;14.30;8.70;;;;;;;;;;5116058;28;20474;-86
2021/10/10 02:56:07;;;;;;;12.80;8.33;;;;;;;;;;5115736;28;20942;-93
2021/10/10 02:58:35;;;;;;;11.70;8.50;;;;;;;;;;5117257;28;20461;-85
2021/10/10 03:01:02;;;;;;;11.00;8.77;;;;;;;;;;5117640;28;20467;-86
2021/10/10 03:03:29;;;;;;;12.63;8.90;;;;;;;;;;5107131;28;20473;-85
2021/10/10 03:05:58;;;;;;;15.90;10.77;;;3.40;99.90;;;;;;5102211;28;20480;-86
2021/10/10 03:08:25;;;;;;;16.30;9.47;;;;;;;;;;5097632;28;20452;-87
2021/10/10 03:10:52;;;;;;;12.10;8.80;;;;;;;;;;5097738;28;20979;-86
2021/10/10 03:13:19;;;;;;;12.80;9.03;;;;;;;;;;5097576;28;20985;-86
2021/10/10 03:15:46;;;;;;;14.30;9.20;;;;;;;;;;5098007;28;20456;-88
2021/10/10 03:18:14;;;;;;;12.50;9.87;;;;;;;;;;5097719;28;20452;-89
2021/10/10 03:20:41;;;;;;;13.70;9.60;;;;;;;;;;5098200;28;20451;-91
2021/10/10 03:23:09;;;;;;;13.43;9.60;;;3.30;99.90;;;;;;5096649;28;20449;-89
2021/10/10 03:25:36;;;;;;;12.83;9.20;;;;;;;;;;5097740;28;20487;-93
2021/10/10 03:28:03;;;;;;;14.13;9.33;;;;;;;;;;5097556;28;20954;-87
2021/10/10 03:30:30;;;;;;;11.90;9.20;;;;;;;;;;5098082;28;20445;-88
2021/10/10 03:32:57;;;;;;;13.60;8.57;;;;;;;;;;5097537;28;20444;-89
2021/10/10 03:35:25;;;;;;;12.43;9.40;;;;;;;;;;5098053;28;20464;-88
2021/10/10 03:37:52;;;;;;;13.00;8.80;;;;;;;;;;5096695;28;20440;-88
2021/10/10 03:40:20;;;;;;;13.10;8.97;;;3.20;99.90;;;;;;5097330;28;20460;-88
2021/10/10 03:42:47;;;;;;;16.87;8.67;;;;;;;;;;5098162;28;20546;-87
2021/10/10 03:45:14;;;;;;;11.70;7.80;;;;;;;;;;5097524;28;20485;-93
2021/10/10 03:47:41;;;;;;;13.40;9.20;;;;;;;;;;5097331;28;20449;-91
2021/10/10 03:50:09;;;;;;;23.00;10.40;;;3.20;99.90;;;;;;5097316;28;20452;-89
2021/10/10 03:52:37;;;;;;;11.00;8.77;;;;;;;;;;5096514;28;20461;-87
2021/10/10 03:58:00;;;;;;;15.80;8.90;;;2.90;99.90;;;;;;5072734;28;20852;-88
2021/10/10 04:00:29;;;;;;;12.27;9.40;;;3.00;99.90;;;;;;5097376;28;21022;-88
2021/10/10 04:02:58;;;;;;;11.63;8.10;;;;;;;;;;5096871;28;20449;-91
2021/10/10 04:05:36;;;;;;;10.17;8.47;;;;;;;;;;5097296;28;20565;-89
2021/10/10 04:08:04;;;;;;;12.40;9.13;;;2.80;99.90;;;;;;5095629;28;20819;-86
2021/10/10 04:10:31;;;;;;;12.00;8.90;;;;;;;;;;5094811;28;20440;-87
2021/10/10 04:12:59;;;;;;;14.60;10.07;;;2.90;99.90;;;;;;5097558;28;20444;-89
2021/10/10 04:15:27;;;;;;;10.63;8.60;;;;;;;;;;5097121;28;20441;-89
2021/10/10 04:17:54;;;;;;;14.23;9.30;;;;;;;;;;5097768;28;20448;-89
2021/10/10 04:20:21;;;;;;;12.10;9.00;;;;;;;;;;5097927;28;20803;-88
2021/10/10 04:22:48;;;;;;;11.00;8.43;;;;;;;;;;5096747;28;20509;-86
2021/10/10 04:25:16;;;;;;;14.57;8.20;;;;;;;;;;5098816;28;20487;-89
2021/10/10 04:27:43;;;;;;;12.87;8.40;;;;;;;;;;5102204;28;20470;-86
2021/10/10 04:30:14;;;;;;;10.13;8.20;;;2.70;99.90;;;;;;5110214;27;20445;-86
2021/10/10 04:32:41;;;;;;;12.57;9.43;;;;;;;;;;5099253;28;20445;-89
2021/10/10 04:35:09;;;;;;;13.87;9.70;;;;;;;;;;5097493;28;20452;-91
2021/10/10 04:37:36;;;;;;;10.77;8.33;;;;;;;;;;5097686;28;20440;-90
2021/10/10 04:40:03;;;;;;;17.57;9.70;;;2.60;99.90;;;;;;5100960;28;20453;-87
2021/10/10 04:42:31;;;;;;;14.10;9.63;;;;;;;;;;5103230;28;20457;-86
2021/10/10 04:44:58;;;;;;;12.77;8.63;;;;;;;;;;5104876;28;20456;-86
2021/10/10 04:47:26;;;;;;;15.27;9.20;;;2.60;99.90;;;;;;5104520;28;20445;-86
2021/10/10 04:49:53;;;;;;;12.63;8.73;;;;;;;;;;5099490;28;20447;-86
2021/10/10 04:52:20;;;;;;;11.83;8.20;;;;;;;;;;5097975;28;20469;-88
2021/10/10 04:54:49;;;;;;;17.97;9.23;;;;;;;;;;5098986;28;20449;-90
2021/10/10 04:57:17;;;;;;;13.73;8.87;;;;;;;;;;5098625;28;20808;-87
2021/10/10 04:59:49;;;;;;;12.07;8.90;;;;;;;;;;5099189;28;20457;-87
2021/10/10 05:02:17;;;;;;;13.00;9.27;;;;;;;;;;5099366;28;20539;-88
2021/10/10 05:04:46;;;;;;;12.30;9.33;;;2.60;99.90;;;;;;5099411;28;20477;-87
2021/10/10 05:07:13;;;;;;;14.53;9.10;;;;;;;;;;5098490;28;20496;-88
2021/10/10 05:09:40;;;;;;;13.87;9.03;;;;;;;;;;5100198;28;20939;-86
2021/10/10 05:12:07;;;;;;;14.57;9.13;;;;;;;;;;5100449;28;20448;-87
2021/10/10 05:14:34;;;;;;;11.60;9.00;;;;;;;;;;5102181;28;20464;-90
2021/10/10 05:17:02;;;;;;;16.47;10.40;;;;;;;;;;5106210;28;20440;-86
2021/10/10 05:19:29;;;;;;;12.67;9.13;;;;;;;;;;5107968;28;20448;-88
2021/10/10 05:21:57;;;;;;;15.40;9.30;;;2.60;99.90;;;;;;5101730;28;20452;-89
2021/10/10 05:24:24;;;;;;;13.93;9.87;;;;;;;;;;5103444;28;20451;-88
2021/10/10 05:26:52;;;;;;;15.00;10.57;;;;;;;;;;5103297;28;20493;-90
2021/10/10 05:29:19;;;;;;;13.77;9.83;;;;;;;;;;5103450;28;20452;-90
2021/10/10 05:31:46;;;;;;;14.93;9.50;;;;;;;;;;5102715;28;20461;-87
2021/10/10 05:34:13;;;;;;;14.70;9.30;;;;;;;;;;5102611;28;20456;-91
2021/10/10 05:36:40;;;;;;;13.10;9.90;;;;;;;;;;5102967;28;20518;-87
2021/10/10 05:39:08;;;;;;;15.40;9.47;;;2.50;99.90;;;;;;5101295;28;20782;-86
2021/10/10 05:41:35;;;;;;;13.60;9.37;;;;;;;;;;5103157;28;20444;-90
2021/10/10 05:44:03;;;;;;;12.53;9.23;;;;;;;;;;5103399;28;20449;-88
2021/10/10 05:46:30;;;;;;;14.53;10.33;;;;;;;;;;5102446;28;20476;-90
2021/10/10 05:48:57;;;;;;;13.60;9.90;;;;;;;;;;5102332;28;20449;-87
2021/10/10 05:51:24;;;;;;;14.70;9.47;;;;;;;;;;5103949;28;20467;-89
2021/10/10 05:53:51;;;;;;;15.60;8.90;;;;;;;;;;5106742;28;20553;-88
2021/10/10 05:56:19;;;;;;;16.60;9.30;;;2.90;99.90;;;;;;5110948;28;20444;-87
2021/10/10 05:58:51;;;;;;;15.63;11.00;;;;;;;;;;5105064;28;20449;-87
2021/10/10 06:01:18;;;;;;;16.03;11.07;;;;;;;;;;5102379;28;20543;-89
2021/10/10 06:03:45;;;;;;;14.30;10.20;;;;;;;;;;5101831;28;20469;-89
2021/10/10 06:06:12;;;;;;;13.73;10.13;;;;;;;;;;5098706;28;20492;-90
2021/10/10 06:08:39;;;;;;;12.83;9.57;;;;;;;;;;5098174;28;20445;-88
2021/10/10 06:11:07;;;;;;;14.53;10.50;;;;;;;;;;5096541;28;20464;-92
2021/10/10 06:13:35;;;;;;;18.03;9.50;;;4.20;99.90;;;;;;5094514;28;20807;-88
2021/10/10 06:16:03;;;;;;;13.73;8.87;;;;;;;;;;5095239;28;20452;-92
2021/10/10 06:18:30;;;;;;;11.63;9.30;;;;;;;;;;5095277;28;20970;-91
2021/10/10 06:20:57;;;;;;;12.33;8.90;;;;;;;;;;5092496;28;20845;-89
2021/10/10 06:23:24;;;;;;;15.27;9.20;;;;;;;;;;5094488;28;20830;-94
2021/10/10 06:25:51;;;;;;;12.40;9.07;;;;;;;;;;5095741;28;20488;-89
2021/10/10 06:28:18;;;;;;;12.00;8.87;;;;;;;;;;5097612;28;20437;-91
2021/10/10 06:30:47;;;;;;;16.80;10.37;;;5.50;99.90;;;;;;5097474;28;20445;-92
2021/10/10 06:33:14;;;;;;;10.60;9.33;;;;;;;;;;5097243;28;20467;-90
2021/10/10 06:35:41;;;;;;;12.70;8.93;;;;;;;;;;5097176;28;20452;-90
2021/10/10 06:38:08;;;;;;;11.93;9.63;;;;;;;;;;5095845;28;20471;-90
2021/10/10 06:40:35;;;;;;;15.10;11.70;;;;;;;;;;5096870;28;20452;-94
2021/10/10 06:43:02;;;;;;;14.50;11.80;;;;;;;;;;5097203;28;20448;-92
2021/10/10 06:45:30;;;;;;;14.70;10.80;;;;;;;;;;5096518;28;20527;-89
2021/10/10 06:47:58;;;;;;;13.93;10.60;;;6.70;99.90;;;;;;5096916;28;20890;-94
2021/10/10 06:50:25;;;;;;;10.67;9.57;;;;;;;;;;5096325;28;20449;-92
2021/10/10 06:52:52;;;;;;;11.40;10.10;;;;;;;;;;5095286;28;20456;-89
2021/10/10 06:55:19;;;;;;;11.80;9.87;;;;;;;;;;5096546;28;20935;-89
2021/10/10 06:57:46;;;;;;;13.40;10.40;;;;;;;;;;5096825;28;20452;-93
2021/10/10 07:00:15;;;;;;;13.30;9.60;;;7.90;99.90;;;;;;5096389;28;20445;-89
2021/10/10 07:02:43;;;;;;;13.73;10.33;;;;;;;;;;5096528;28;20505;-91
2021/10/10 07:05:12;;;;;;;14.57;11.37;;;8.00;99.90;;;;;;5096418;28;20476;-89
2021/10/10 07:07:40;;;;;;;16.00;12.80;;;;;;;;;;5095234;28;20489;-93
2021/10/10 07:10:08;;;;;;;16.33;11.80;;;8.90;99.90;;;;;;5096464;28;20443;-90
2021/10/10 07:12:36;;;;;;;16.80;10.90;;;;;;;;;;5096729;28;20558;-88
2021/10/10 07:15:06;;;;;;;15.33;11.80;;;9.80;99.90;;;;;;5096046;28;20490;-91
2021/10/10 07:17:33;;;;;;;15.47;12.00;;;;;;;;;;5096378;28;20531;-88
2021/10/10 07:20:04;;;;;;;18.90;11.80;;;;;;;;;;5099161;28;20928;-87
2021/10/10 07:22:43;;;;;;;17.17;11.87;;;10.50;99.90;;;;;;5105837;28;20476;-90
2021/10/10 07:25:10;;;;;;;18.40;12.00;;;;;;;;;;5097077;28;20441;-89
2021/10/10 07:27:39;;;;;;;14.83;10.73;;;11.10;99.90;;;;;;5096265;28;20485;-89
2021/10/10 07:30:08;;;;;;;15.30;12.40;;;10.80;99.90;;;;;;5102117;28;20447;-88
2021/10/10 07:32:35;;;;;;;14.47;11.57;;;;;;;;;;5104789;28;20440;-88
2021/10/10 07:35:04;;;;;;;19.90;12.47;;;11.90;99.90;;;;;;5096221;28;20444;-89
2021/10/10 07:37:32;;;;;;;17.03;11.27;;;12.20;99.90;;;;;;5094293;28;20449;-93
2021/10/10 07:39:59;;;;;;;15.67;10.97;;;;;;;;;;5095471;28;20853;-90
2021/10/10 07:42:26;;;;;;;18.13;12.50;;;;;;;;;;5095846;28;20459;-92
2021/10/10 07:44:56;;;;;;;14.57;10.57;;;;;;;;;;5096279;28;20445;-91
2021/10/10 07:47:35;;;;;;;18.23;12.33;;;;;;;;;;5096460;28;20491;-87
2021/10/10 07:50:03;;;;;;;20.53;12.67;;;;;;;;;;5098481;27;21030;-91
2021/10/10 07:52:30;;;;;;;14.10;12.50;;;;;;;;;;5095080;28;20467;-87
2021/10/10 07:54:58;;;;;;;15.73;11.93;;;13.20;99.90;;;;;;5096059;28;20454;-92
2021/10/10 07:57:25;;;;;;;19.50;11.90;;;;;;;;;;5096769;28;20441;-91
2021/10/10 07:59:52;;;;;;;13.53;12.03;;;;;;;;;;5098139;28;20959;-88
2021/10/10 08:02:20;;;;;;;17.10;11.87;;;;;;;;;;5101075;28;20459;-89
2021/10/10 08:04:47;;;;;;;13.67;11.30;;;;;;;;;;5105424;28;20476;-89
2021/10/10 08:07:14;;;;;;;38.47;11.70;;;;;;;;;;5099595;28;20484;-88
2021/10/10 08:09:41;;;;;;;18.13;13.43;;;;;;;;;;5096512;28;20455;-94
2021/10/10 08:12:10;;;;;;;15.97;12.73;;;13.50;99.90;;;;;;5096072;28;20935;-87
2021/10/10 08:14:37;;;;;;;14.13;10.83;;;;;;;;;;5096494;28;20547;-88
2021/10/10 08:17:05;;;;;;;13.07;11.67;;;;;;;;;;5095675;28;20460;-93
2021/10/10 08:19:32;;;;;;;14.50;11.97;;;;;;;;;;5095676;28;20464;-89
2021/10/10 08:21:59;;;;;;;17.63;11.97;;;;;;;;;;5093762;28;20449;-88
2021/10/10 08:24:29;;;;;;;16.83;11.80;;;;;;;;;;5094817;28;20967;-88
2021/10/10 08:26:57;;;;;;;15.23;11.50;;;;;;;;;;5094435;28;20520;-92
2021/10/10 08:29:25;;;;;;;15.40;11.83;;;13.60;99.90;;;;;;5096858;28;20464;-92
2021/10/10 08:31:52;;;;;;;14.67;11.23;;;;;;;;;;5095080;28;20449;-87
2021/10/10 08:34:19;;;;;;;16.10;12.73;;;;;;;;;;5095060;28;20468;-93
2021/10/10 08:36:46;;;;;;;20.47;13.07;;;;;;;;;;5095079;28;20449;-90
2021/10/10 08:39:13;;;;;;;17.90;11.43;;;;;;;;;;5097745;27;20980;-94
2021/10/10 08:41:43;;;;;;;15.37;12.27;;;14.70;99.90;;;;;;5095431;28;20459;-89
2021/10/10 08:44:16;;;;;;;15.00;11.13;;;15.20;99.90;;;;;;5094763;28;20506;-92
2021/10/10 08:46:46;;;;;;;12.47;11.17;;;15.50;98.30;;;;;;5101657;28;20480;-89
2021/10/10 08:49:14;;;;;;;17.53;11.00;;;;;;;;;;5106292;27;20887;-91
2021/10/10 08:51:41;;;;;;;13.83;11.90;;;;;;;;;;5094237;28;20476;-92
2021/10/10 08:54:09;;;;;;;15.33;10.97;;;;;;;;;;5094786;28;20448;-89
2021/10/10 08:56:36;;;;;;;14.70;11.77;;;;;;;;;;5094479;28;20456;-91
2021/10/10 08:59:04;;;;;;;13.00;11.60;;;;;;;;;;5094871;28;20785;-94
2021/10/10 09:01:32;;;;;;;14.77;12.33;;;;;;;;;;5094918;28;20437;-94
2021/10/10 09:04:00;;;;;;;15.13;12.40;;;15.80;96.60;;;;;;5094817;28;20477;-91
2021/10/10 09:06:28;;;;;;;14.63;11.63;;;;;;;;;;5093456;28;20440;-94
2021/10/10 09:08:55;;;;;;;14.80;12.10;;;;;;;;;;5094809;28;20456;-93
2021/10/10 09:11:22;;;;;;;13.57;11.30;;;;;;;;;;5094967;28;20445;-93
2021/10/10 09:14:01;;;;;;;14.80;11.53;;;15.10;96.20;;;;;;5094669;28;20460;-90
2021/10/10 09:16:35;;;;;;;12.63;11.30;;;16.40;96.10;;;;;;5095218;28;20463;-95
2021/10/10 09:19:26;;;;;;;13.93;11.47;;;16.90;93.70;;;;;;5094765;28;20448;-93
2021/10/10 09:22:00;;;;;;;21.93;14.60;;;17.30;93.70;;;;;;5093942;28;20449;-93
2021/10/10 09:24:27;;;;;;;19.00;12.40;;;;;;;;;;5094302;28;20476;-90
2021/10/10 09:26:55;;;;;;;17.20;12.97;;;17.50;92.00;;;;;;5093828;28;20488;-91
2021/10/10 09:29:32;;;;;;;13.63;11.60;;;17.30;91.50;;;;;;5093683;28;20453;-89
2021/10/10 09:32:07;;;;;;;12.20;10.93;;;16.60;91.50;;;;;;5093614;28;20444;-89
2021/10/10 09:34:36;;;;;;;16.77;11.97;;;16.80;91.70;;;;;;5093651;28;20534;-91
2021/10/10 09:37:06;;;;;;;14.17;10.90;;;17.30;91.00;;;;;;5092874;28;20475;-91
2021/10/10 09:39:39;;;;;;;12.53;10.80;;;16.20;92.30;;;;;;5093347;28;20514;-89
2021/10/10 09:42:06;;;;;;;12.53;10.77;;;;;;;;;;5096369;28;21014;-87
2021/10/10 09:44:46;;;;;;;13.73;11.00;;;16.20;91.90;;;;;;5099869;28;20880;-89
2021/10/10 09:47:14;;;;;;;12.50;10.83;;;;;;;;;;5092413;28;20512;-91
2021/10/10 09:49:42;;;;;;;17.63;11.80;;;;;;;;;;5094682;28;20877;-89
2021/10/10 09:52:15;;;;;;;14.63;12.53;;;17.00;91.70;;;;;;5094349;28;20452;-90
2021/10/10 09:54:49;;;;;;;13.87;11.40;;;16.70;92.50;;;;;;5094699;28;20441;-88
2021/10/10 09:57:19;;;;;;;14.87;11.30;;;;;;;;;;5093999;28;20943;-92
2021/10/10 09:59:46;;;;;;;13.63;10.07;;;;;;;;;;5094959;28;20449;-91
2021/10/10 10:02:13;;;;;;;14.70;10.10;;;;;;;;;;5094643;28;20445;-91
2021/10/10 10:04:47;;;;;;;13.60;10.63;;;17.30;91.20;;;;;;5094048;28;20476;-89
2021/10/10 10:07:14;;;;;;;15.37;10.60;;;;;;;;;;5093085;28;20495;-91
2021/10/10 10:09:41;;;;;;;18.60;10.50;;;;;;;;;;5094388;28;20449;-91
2021/10/10 10:12:09;;;;;;;17.67;10.30;;;18.30;88.00;;;;;;5098728;28;20467;-90
2021/10/10 10:14:36;;;;;;;11.73;10.37;;;;;;;;;;5103987;28;20448;-89
2021/10/10 10:17:04;;;;;;;13.43;10.73;;;17.70;87.50;;;;;;5098431;28;20448;-92
2021/10/10 10:19:32;;;;;;;9.40;8.50;;;17.20;89.10;;;;;;5094230;28;20453;-94
2021/10/10 10:22:00;;;;;;;14.27;10.47;;;17.20;90.00;;;;;;5093617;28;20456;-92
2021/10/10 10:24:30;;;;;;;13.93;9.70;;;;;;;;;;5094138;28;20445;-92
2021/10/10 10:26:58;;;;;;;12.50;10.10;;;;;;;;;;5095556;28;20508;-88
2021/10/10 10:29:29;;;;;;;12.17;10.47;;;18.10;88.70;;;;;;5093895;28;20449;-91
2021/10/10 10:31:57;;;;;;;10.20;9.10;;;17.50;90.60;;;;;;5092263;28;20852;-90
2021/10/10 10:34:26;;;;;;;14.23;11.40;;;18.20;90.30;;;;;;5099751;28;20516;-90
2021/10/10 10:36:56;;;;;;;12.53;9.77;;;18.40;86.80;;;;;;5098346;28;20441;-91
2021/10/10 10:39:39;;;;;;;13.67;9.83;;;17.80;85.60;;;;;;5095713;28;20445;-89
2021/10/10 10:42:06;;;;;;;14.60;9.60;;;;;;;;;;5094235;28;20455;-87
2021/10/10 10:44:35;;;;;;;17.33;9.83;;;17.60;88.60;;;;;;5093441;28;20441;-89
2021/10/10 10:47:04;;;;;;;13.10;9.37;;;17.10;86.60;;;;;;5093872;28;20441;-93
2021/10/10 10:50:04;;;;;;;15.40;10.00;;;17.70;88.60;;;;;;5092371;28;20461;-89
2021/10/10 10:52:33;;;;;;;13.23;10.20;;;17.90;88.20;;;;;;5029531;28;20448;-91
2021/10/10 10:55:16;;;;;;;12.13;10.27;;;17.70;87.20;;;;;;5077105;28;20543;-89
2021/10/10 10:57:48;;;;;;;16.30;10.37;;;17.60;89.10;;;;;;5093206;28;20440;-87
2021/10/10 11:00:21;;;;;;;13.10;9.87;;;16.90;89.70;;;;;;5092732;28;20456;-87
2021/10/10 11:02:49;;;;;;;15.30;10.40;;;;;;;;;;5089611;28;20472;-90
2021/10/10 11:05:31;;;;;;;13.23;10.10;;;16.90;89.50;;;;;;5095022;28;20519;-91
2021/10/10 11:07:58;;;;;;;16.00;9.87;;;;;;;;;;5091546;28;20483;-88
2021/10/10 11:10:26;;;;;;;15.40;11.03;;;17.70;88.30;;;;;;5092289;28;20440;-90
2021/10/10 11:12:56;;;;;;;13.40;9.87;;;18.10;87.60;;;;;;5095800;28;20458;-87
2021/10/10 11:15:23;;;;;;;13.07;9.30;;;;;;;;;;5096020;28;20809;-87
2021/10/10 11:17:56;;;;;;;16.70;10.60;;;18.10;88.10;;;;;;5096435;28;20456;-87
2021/10/10 11:20:24;;;;;;;13.07;10.20;;;;;;;;;;5097939;28;20456;-90
2021/10/10 11:22:51;;;;;;;14.50;10.83;;;;;;;;;;5098017;28;20445;-88
2021/10/10 11:25:19;;;;;;;11.60;8.87;;;;;;;;;;5101263;28;20444;-87
2021/10/10 11:27:49;;;;;;;12.83;10.13;;;17.50;87.80;;;;;;5096290;28;20504;-91
2021/10/10 11:30:16;;;;;;;12.87;10.53;;;;;;;;;;5096013;28;20457;-87
2021/10/10 11:32:55;;;;;;;12.57;10.07;;;17.20;90.20;;;;;;5096025;28;20471;-88
2021/10/10 11:35:24;;;;;;;18.23;10.33;;;17.90;88.30;;;;;;5095897;28;20495;-92
2021/10/10 11:38:01;;;;;;;12.27;9.60;;;;;;;;;;5094927;28;20449;-87
2021/10/10 11:40:28;;;;;;;13.00;10.23;;;;;;;;;;5102909;28;20445;-88
2021/10/10 11:42:58;;;;;;;13.27;9.20;;;17.30;90.00;;;;;;5098829;28;20445;-89
2021/10/10 11:45:25;;;;;;;14.07;11.23;;;;;;;;;;5095615;28;20449;-91
2021/10/10 11:47:53;;;;;;;18.60;10.80;;;;;;;;;;5095740;28;20901;-90
2021/10/10 11:50:20;;;;;;;13.17;11.00;;;;;;;;;;5095608;28;20477;-90
2021/10/10 11:52:54;;;;;;;16.77;10.77;;;17.10;89.50;;;;;;5094450;28;20452;-93
2021/10/10 11:55:24;;;;;;;16.90;10.47;;;;;;;;;;5096326;28;20805;-87
2021/10/10 11:57:55;;;;;;;12.77;10.33;;;16.90;90.60;;;;;;5100436;28;20453;-90
2021/10/10 12:00:27;;;;;;;13.13;10.87;;;17.20;89.70;;;;;;5094943;28;20510;-92
2021/10/10 12:02:54;;;;;;;16.90;10.23;;;;;;;;;;5095060;28;20452;-93
2021/10/10 12:05:23;;;;;;;13.80;10.10;;;17.60;90.40;;;;;;5095072;28;20506;-90
2021/10/10 12:07:52;;;;;;;12.53;9.97;;;;;;;;;;5094002;28;20925;-88
2021/10/10 12:10:20;;;;;;;11.03;9.87;;;16.40;91.40;;;;;;5094993;28;20498;-87
2021/10/10 12:12:47;;;;;;;15.70;9.10;;;;;;;;;;5092481;28;20457;-92
2021/10/10 12:15:17;;;;;;;15.50;10.43;;;17.60;87.90;;;;;;5094476;28;20506;-91
2021/10/10 12:17:48;;;;;;;13.30;8.83;;;17.90;86.20;;;;;;5096648;27;20449;-86
2021/10/10 12:20:27;;;;;;;11.00;9.30;;;17.60;86.60;;;;;;5092059;28;21025;-88
2021/10/10 12:22:57;;;;;;;11.60;9.57;;;17.20;87.50;;;;;;5093387;28;20448;-89
2021/10/10 12:25:25;;;;;;;15.50;8.60;;;16.80;89.50;;;;;;5094679;28;20958;-91
2021/10/10 12:27:57;;;;;;;12.93;9.17;;;17.10;88.70;;;;;;5094968;28;20488;-88
2021/10/10 12:30:29;;;;;;;15.07;10.10;;;17.00;88.00;;;;;;5094796;28;20453;-90
2021/10/10 12:32:58;;;;;;;11.70;10.10;;;17.80;88.90;;;;;;5094835;28;20445;-92
2021/10/10 12:35:25;;;;;;;10.67;8.97;;;;;;;;;;5094557;28;20453;-92
2021/10/10 12:37:54;;;;;;;10.10;8.67;;;17.80;86.60;;;;;;5093547;28;20448;-89
2021/10/10 12:40:30;;;;;;;13.90;9.50;;;17.90;85.40;;;;;;5094591;28;20536;-91
2021/10/10 12:42:58;;;;;;;12.27;9.07;;;;;;;;;;5094672;28;20487;-91
2021/10/10 12:45:29;;;;;;;10.33;8.23;;;;;;;;;;5094612;28;20445;-90
2021/10/10 12:48:03;;;;;;;13.07;9.37;;;16.50;89.90;;;;;;5094549;28;20503;-88
2021/10/10 12:50:31;;;;;;;13.20;9.80;;;17.00;90.00;;;;;;5094352;28;20448;-91
2021/10/10 12:52:58;;;;;;;10.47;9.27;;;;;;;;;;5092940;28;20449;-89
2021/10/10 12:55:27;;;;;;;12.57;9.20;;;17.80;90.00;;;;;;5094270;28;20832;-86
2021/10/10 12:57:57;;;;;;;10.90;9.77;;;17.90;88.40;;;;;;5094142;28;20456;-92
2021/10/10 13:00:24;;;;;;;12.60;9.60;;;;;;;;;;5093937;28;20459;-88
2021/10/10 13:02:51;;;;;;;11.03;9.93;;;;;;;;;;5094044;28;20449;-88
2021/10/10 13:05:20;;;;;;;11.20;9.93;;;18.70;87.30;;;;;;5095478;28;20476;-87
2021/10/10 13:07:48;;;;;;;14.00;8.90;;;;;;;;;;5103400;28;20453;-92
2021/10/10 13:10:16;;;;;;;13.70;9.80;;;18.40;89.10;;;;;;5096150;28;20455;-90
2021/10/10 13:12:44;;;;;;;15.10;10.00;;;;;;;;;;5096037;27;20449;-88
2021/10/10 13:15:11;;;;;;;11.70;9.47;;;;;;;;;;5094081;28;20437;-92
2021/10/10 13:17:38;;;;;;;15.50;10.67;;;;;;;;;;5093710;28;20452;-89
2021/10/10 13:20:06;;;;;;;12.30;9.67;;;17.60;91.30;;;;;;5093754;28;20445;-88
2021/10/10 13:22:35;;;;;;;17.67;9.80;;;18.20;89.20;;;;;;5092497;28;20545;-90
2021/10/10 13:25:06;;;;;;;14.60;10.27;;;18.50;90.20;;;;;;5093524;28;20445;-92
2021/10/10 13:27:33;;;;;;;11.97;9.60;;;;;;;;;;5093506;28;20445;-87
2021/10/10 13:30:00;;;;;;;15.27;9.83;;;;;;;;;;5093470;28;20484;-87
2021/10/10 13:32:27;;;;;;;12.40;8.87;;;;;;;;;;5093413;28;20452;-90
2021/10/10 13:34:55;;;;;;;11.20;9.30;;;;;;;;;;5092941;28;20970;-88
2021/10/10 13:37:24;;;;;;;12.53;10.23;;;18.30;87.40;;;;;;5092125;28;20449;-90
2021/10/10 13:39:52;;;;;;;11.47;10.23;;;18.60;86.30;;;;;;5093018;28;20799;-91
2021/10/10 13:42:20;;;;;;;11.50;9.90;;;;;;;;;;5093575;28;20548;-88
2021/10/10 13:44:48;;;;;;;10.57;8.37;;;;;;;;;;5091187;28;20453;-88
2021/10/10 13:47:15;;;;;;;10.10;9.00;;;;;;;;;;5093162;28;20486;-88
2021/10/10 13:49:47;;;;;;;15.10;9.67;;;;;;;;;;5093085;28;20550;-90
2021/10/10 13:52:14;;;;;;;15.17;9.10;;;;;;;;;;5092074;28;20452;-92
2021/10/10 13:54:45;;;;;;;11.40;9.90;;;;;;;;;;5093104;28;20444;-88